sensor_id;sensor_type;location;lat;lon;timestamp;pressure;altitude;pressure_sealevel;temperature;humidity
2214;BME280;1113;42.018;23.986;2023-02-08T00:00:51;94084.94;;;-9.71;93.77
2214;BME280;1113;42.018;23.986;2023-02-08T00:03:18;94084.47;;;-9.74;95.99
2214;BME280;1113;42.018;23.986;2023-02-08T00:05:45;94090.44;;;-9.67;96.08
2214;BME280;1113;42.018;23.986;2023-02-08T00:08:12;94085.75;;;-9.62;94.61
2214;BME280;1113;42.018;23.986;2023-02-08T00:10:40;94090.84;;;-9.46;93.67
2214;BME280;1113;42.018;23.986;2023-02-08T00:13:07;94093.81;;;-9.76;95.17
2214;BME280;1113;42.018;23.986;2023-02-08T00:15:34;94090.91;;;-9.90;97.41
2214;BME280;1113;42.018;23.986;2023-02-08T00:18:01;94104.03;;;-9.62;94.25
2214;BME280;1113;42.018;23.986;2023-02-08T00:20:27;94092.34;;;-9.87;95.97
2214;BME280;1113;42.018;23.986;2023-02-08T00:22:55;94097.75;;;-9.92;97.75
2214;BME280;1113;42.018;23.986;2023-02-08T00:25:22;94105.91;;;-9.64;94.85
2214;BME280;1113;42.018;23.986;2023-02-08T00:27:50;94105.19;;;-9.82;95.59
2214;BME280;1113;42.018;23.986;2023-02-08T00:30:17;94102.09;;;-9.76;97.00
2214;BME280;1113;42.018;23.986;2023-02-08T00:32:43;94103.16;;;-9.52;94.34
2214;BME280;1113;42.018;23.986;2023-02-08T00:35:10;94115.78;;;-9.80;95.46
2214;BME280;1113;42.018;23.986;2023-02-08T00:37:37;94118.78;;;-9.76;95.77
2214;BME280;1113;42.018;23.986;2023-02-08T00:40:06;94114.53;;;-10.02;97.83
2214;BME280;1113;42.018;23.986;2023-02-08T00:42:32;94118.97;;;-10.13;100.00
2214;BME280;1113;42.018;23.986;2023-02-08T00:45:01;94113.03;;;-10.21;100.00
2214;BME280;1113;42.018;23.986;2023-02-08T00:47:30;94116.78;;;-10.16;100.00
2214;BME280;1113;42.018;23.986;2023-02-08T00:49:56;94117.41;;;-10.14;100.00
2214;BME280;1113;42.018;23.986;2023-02-08T00:52:24;94114.63;;;-10.11;100.00
2214;BME280;1113;42.018;23.986;2023-02-08T00:54:51;94118.91;;;-10.04;100.00
2214;BME280;1113;42.018;23.986;2023-02-08T00:57:17;94118.16;;;-9.96;100.00
2214;BME280;1113;42.018;23.986;2023-02-08T00:59:44;94125.22;;;-9.92;98.95
2214;BME280;1113;42.018;23.986;2023-02-08T01:02:12;94114.03;;;-9.88;98.57
2214;BME280;1113;42.018;23.986;2023-02-08T01:04:39;94116.72;;;-9.81;97.56
2214;BME280;1113;42.018;23.986;2023-02-08T01:07:06;94115.66;;;-9.78;96.61
2214;BME280;1113;42.018;23.986;2023-02-08T01:09:33;94106.19;;;-9.67;94.38
2214;BME280;1113;42.018;23.986;2023-02-08T01:12:00;94108.81;;;-9.94;95.71
2214;BME280;1113;42.018;23.986;2023-02-08T01:14:27;94113.34;;;-10.15;98.72
2214;BME280;1113;42.018;23.986;2023-02-08T01:16:54;94109.88;;;-9.97;98.15
2214;BME280;1113;42.018;23.986;2023-02-08T01:19:22;94103.78;;;-10.02;97.67
2214;BME280;1113;42.018;23.986;2023-02-08T01:21:49;94095.44;;;-10.11;98.33
2214;BME280;1113;42.018;23.986;2023-02-08T01:24:16;94102.41;;;-10.23;97.24
2214;BME280;1113;42.018;23.986;2023-02-08T01:26:43;94108.69;;;-10.36;100.00
2214;BME280;1113;42.018;23.986;2023-02-08T01:29:10;94108.84;;;-10.38;100.00
2214;BME280;1113;42.018;23.986;2023-02-08T01:31:38;94104.34;;;-10.08;99.20
2214;BME280;1113;42.018;23.986;2023-02-08T01:34:06;94099.78;;;-10.21;99.38
2214;BME280;1113;42.018;23.986;2023-02-08T01:36:36;94104.94;;;-10.40;100.00
2214;BME280;1113;42.018;23.986;2023-02-08T01:39:04;94107.41;;;-10.40;100.00
2214;BME280;1113;42.018;23.986;2023-02-08T01:41:33;94111.34;;;-10.38;100.00
2214;BME280;1113;42.018;23.986;2023-02-08T01:44:06;94114.75;;;-10.21;100.00
2214;BME280;1113;42.018;23.986;2023-02-08T01:46:35;94117.53;;;-10.24;100.00
2214;BME280;1113;42.018;23.986;2023-02-08T01:49:06;94112.69;;;-10.26;98.93
2214;BME280;1113;42.018;23.986;2023-02-08T01:51:38;94117.72;;;-10.53;100.00
2214;BME280;1113;42.018;23.986;2023-02-08T01:54:08;94118.53;;;-10.09;100.00
2214;BME280;1113;42.018;23.986;2023-02-08T01:56:37;94123.94;;;-10.22;100.00
2214;BME280;1113;42.018;23.986;2023-02-08T01:59:09;94120.25;;;-10.35;100.00
2214;BME280;1113;42.018;23.986;2023-02-08T02:01:37;94123.19;;;-10.40;100.00
2214;BME280;1113;42.018;23.986;2023-02-08T02:04:06;94126.28;;;-10.20;99.15
2214;BME280;1113;42.018;23.986;2023-02-08T02:06:36;94122.50;;;-10.42;99.32
2214;BME280;1113;42.018;23.986;2023-02-08T02:09:09;94120.00;;;-10.60;100.00
2214;BME280;1113;42.018;23.986;2023-02-08T02:11:38;94131.91;;;-10.71;100.00
2214;BME280;1113;42.018;23.986;2023-02-08T02:14:05;94141.38;;;-10.57;100.00
2214;BME280;1113;42.018;23.986;2023-02-08T02:16:32;94132.28;;;-10.48;100.00
2214;BME280;1113;42.018;23.986;2023-02-08T02:18:58;94125.28;;;-10.45;100.00
2214;BME280;1113;42.018;23.986;2023-02-08T02:21:43;94131.34;;;-10.47;100.00
2214;BME280;1113;42.018;23.986;2023-02-08T02:27:24;94137.78;;;-10.27;100.00
2214;BME280;1113;42.018;23.986;2023-02-08T02:35:55;94144.72;;;-10.66;100.00
2214;BME280;1113;42.018;23.986;2023-02-08T02:38:31;94145.72;;;-10.77;100.00
2214;BME280;1113;42.018;23.986;2023-02-08T02:41:14;94148.28;;;-10.87;100.00
2214;BME280;1113;42.018;23.986;2023-02-08T02:44:11;94150.56;;;-10.75;100.00
2214;BME280;1113;42.018;23.986;2023-02-08T02:46:40;94136.94;;;-10.81;100.00
2214;BME280;1113;42.018;23.986;2023-02-08T02:49:14;94142.66;;;-10.71;100.00
2214;BME280;1113;42.018;23.986;2023-02-08T02:51:47;94153.28;;;-10.69;100.00
2214;BME280;1113;42.018;23.986;2023-02-08T02:54:19;94153.13;;;-10.85;100.00
2214;BME280;1113;42.018;23.986;2023-02-08T02:56:51;94155.31;;;-10.82;100.00
2214;BME280;1113;42.018;23.986;2023-02-08T02:59:20;94153.47;;;-10.80;100.00
2214;BME280;1113;42.018;23.986;2023-02-08T03:01:48;94156.94;;;-10.91;100.00
2214;BME280;1113;42.018;23.986;2023-02-08T03:04:16;94161.25;;;-10.93;100.00
2214;BME280;1113;42.018;23.986;2023-02-08T03:06:57;94160.75;;;-10.87;100.00
2214;BME280;1113;42.018;23.986;2023-02-08T03:09:43;94163.25;;;-10.96;100.00
2214;BME280;1113;42.018;23.986;2023-02-08T03:12:26;94175.31;;;-10.92;100.00
2214;BME280;1113;42.018;23.986;2023-02-08T03:14:57;94168.75;;;-10.65;100.00
2214;BME280;1113;42.018;23.986;2023-02-08T03:17:35;94174.44;;;-10.73;100.00
2214;BME280;1113;42.018;23.986;2023-02-08T03:20:08;94179.53;;;-11.02;100.00
2214;BME280;1113;42.018;23.986;2023-02-08T03:22:42;94179.53;;;-11.02;100.00
2214;BME280;1113;42.018;23.986;2023-02-08T03:25:14;94177.50;;;-11.16;100.00
2214;BME280;1113;42.018;23.986;2023-02-08T03:27:48;94183.88;;;-11.04;100.00
2214;BME280;1113;42.018;23.986;2023-02-08T03:30:19;94186.88;;;-11.00;100.00
2214;BME280;1113;42.018;23.986;2023-02-08T03:32:53;94194.03;;;-11.15;100.00
2214;BME280;1113;42.018;23.986;2023-02-08T03:35:24;94197.53;;;-11.08;100.00
2214;BME280;1113;42.018;23.986;2023-02-08T03:37:57;94198.13;;;-11.24;100.00
2214;BME280;1113;42.018;23.986;2023-02-08T03:40:28;94196.81;;;-11.28;100.00
2214;BME280;1113;42.018;23.986;2023-02-08T03:42:58;94193.66;;;-11.20;100.00
2214;BME280;1113;42.018;23.986;2023-02-08T03:45:30;94192.78;;;-11.01;100.00
2214;BME280;1113;42.018;23.986;2023-02-08T03:48:01;94194.22;;;-10.99;100.00
2214;BME280;1113;42.018;23.986;2023-02-08T03:50:32;94197.22;;;-10.95;100.00
2214;BME280;1113;42.018;23.986;2023-02-08T03:53:02;94204.19;;;-10.89;100.00
2214;BME280;1113;42.018;23.986;2023-02-08T03:55:32;94207.03;;;-10.84;100.00
2214;BME280;1113;42.018;23.986;2023-02-08T03:58:04;94209.06;;;-10.70;100.00
2214;BME280;1113;42.018;23.986;2023-02-08T04:00:35;94214.34;;;-10.73;100.00
2214;BME280;1113;42.018;23.986;2023-02-08T04:03:07;94211.44;;;-10.51;100.00
2214;BME280;1113;42.018;23.986;2023-02-08T04:05:35;94219.19;;;-10.71;100.00
2214;BME280;1113;42.018;23.986;2023-02-08T04:08:04;94210.78;;;-10.70;100.00
2214;BME280;1113;42.018;23.986;2023-02-08T04:10:30;94212.94;;;-10.58;100.00
2214;BME280;1113;42.018;23.986;2023-02-08T04:12:57;94207.88;;;-10.48;100.00
2214;BME280;1113;42.018;23.986;2023-02-08T04:15:24;94212.47;;;-10.43;100.00
2214;BME280;1113;42.018;23.986;2023-02-08T04:17:52;94212.72;;;-10.37;100.00
2214;BME280;1113;42.018;23.986;2023-02-08T04:20:19;94214.63;;;-10.31;100.00
2214;BME280;1113;42.018;23.986;2023-02-08T04:22:46;94213.41;;;-10.27;100.00
2214;BME280;1113;42.018;23.986;2023-02-08T04:25:14;94211.91;;;-10.20;100.00
2214;BME280;1113;42.018;23.986;2023-02-08T04:27:41;94216.75;;;-10.18;100.00
2214;BME280;1113;42.018;23.986;2023-02-08T04:30:09;94221.88;;;-10.20;100.00
2214;BME280;1113;42.018;23.986;2023-02-08T04:32:36;94225.72;;;-10.07;100.00
2214;BME280;1113;42.018;23.986;2023-02-08T04:35:06;94224.66;;;-10.05;100.00
2214;BME280;1113;42.018;23.986;2023-02-08T04:37:32;94231.78;;;-9.92;100.00
2214;BME280;1113;42.018;23.986;2023-02-08T04:39:59;94237.34;;;-9.98;99.34
2214;BME280;1113;42.018;23.986;2023-02-08T04:42:27;94240.00;;;-10.00;100.00
2214;BME280;1113;42.018;23.986;2023-02-08T04:44:54;94234.09;;;-9.81;99.58
2214;BME280;1113;42.018;23.986;2023-02-08T04:47:21;94241.59;;;-9.81;98.58
2214;BME280;1113;42.018;23.986;2023-02-08T04:49:48;94238.75;;;-9.86;98.31
2214;BME280;1113;42.018;23.986;2023-02-08T04:52:15;94250.91;;;-10.01;100.00
2214;BME280;1113;42.018;23.986;2023-02-08T04:54:41;94257.03;;;-9.95;100.00
2214;BME280;1113;42.018;23.986;2023-02-08T04:57:10;94255.66;;;-9.80;100.00
2214;BME280;1113;42.018;23.986;2023-02-08T04:59:39;94257.06;;;-9.77;99.57
2214;BME280;1113;42.018;23.986;2023-02-08T05:02:06;94261.44;;;-9.79;100.00
2214;BME280;1113;42.018;23.986;2023-02-08T05:04:33;94261.34;;;-9.70;100.00
2214;BME280;1113;42.018;23.986;2023-02-08T05:07:00;94265.91;;;-9.65;99.08
2214;BME280;1113;42.018;23.986;2023-02-08T05:12:44;94264.69;;;-9.61;96.78
2214;BME280;1113;42.018;23.986;2023-02-08T05:15:13;94265.19;;;-9.58;97.34
2214;BME280;1113;42.018;23.986;2023-02-08T05:17:39;94263.81;;;-9.52;97.54
2214;BME280;1113;42.018;23.986;2023-02-08T05:20:07;94269.03;;;-9.45;96.98
2214;BME280;1113;42.018;23.986;2023-02-08T05:22:34;94268.59;;;-9.41;97.69
2214;BME280;1113;42.018;23.986;2023-02-08T05:25:01;94272.59;;;-9.30;100.00
2214;BME280;1113;42.018;23.986;2023-02-08T05:27:28;94276.72;;;-9.21;100.00
2214;BME280;1113;42.018;23.986;2023-02-08T05:29:55;94273.59;;;-9.23;100.00
2214;BME280;1113;42.018;23.986;2023-02-08T05:32:23;94282.94;;;-9.25;98.70
2214;BME280;1113;42.018;23.986;2023-02-08T05:34:50;94286.88;;;-9.23;97.82
2214;BME280;1113;42.018;23.986;2023-02-08T05:37:16;94294.50;;;-9.24;97.66
2214;BME280;1113;42.018;23.986;2023-02-08T05:39:43;94299.22;;;-9.21;97.61
2214;BME280;1113;42.018;23.986;2023-02-08T05:42:10;94306.56;;;-9.19;97.82
2214;BME280;1113;42.018;23.986;2023-02-08T05:44:38;94302.41;;;-9.11;96.18
2214;BME280;1113;42.018;23.986;2023-02-08T05:47:05;94297.84;;;-9.15;96.14
2214;BME280;1113;42.018;23.986;2023-02-08T05:49:33;94303.34;;;-9.12;96.14
2214;BME280;1113;42.018;23.986;2023-02-08T05:52:02;94311.47;;;-9.10;96.79
2214;BME280;1113;42.018;23.986;2023-02-08T05:54:29;94303.69;;;-9.07;96.25
2214;BME280;1113;42.018;23.986;2023-02-08T05:56:56;94303.59;;;-8.97;95.43
2214;BME280;1113;42.018;23.986;2023-02-08T05:59:23;94298.00;;;-8.91;95.15
2214;BME280;1113;42.018;23.986;2023-02-08T06:01:50;94305.06;;;-8.86;93.90
2214;BME280;1113;42.018;23.986;2023-02-08T06:04:16;94305.13;;;-8.78;91.93
2214;BME280;1113;42.018;23.986;2023-02-08T06:06:44;94309.78;;;-8.83;92.59
2214;BME280;1113;42.018;23.986;2023-02-08T06:09:11;94300.63;;;-8.75;93.16
2214;BME280;1113;42.018;23.986;2023-02-08T06:11:38;94304.69;;;-8.74;92.22
2214;BME280;1113;42.018;23.986;2023-02-08T06:14:05;94312.53;;;-8.69;92.33
2214;BME280;1113;42.018;23.986;2023-02-08T06:16:31;94307.56;;;-8.61;90.94
2214;BME280;1113;42.018;23.986;2023-02-08T06:18:58;94319.75;;;-8.66;90.88
2214;BME280;1113;42.018;23.986;2023-02-08T06:21:25;94313.34;;;-8.60;91.34
2214;BME280;1113;42.018;23.986;2023-02-08T06:23:53;94314.88;;;-8.67;91.09
2214;BME280;1113;42.018;23.986;2023-02-08T06:26:21;94322.84;;;-8.72;92.62
2214;BME280;1113;42.018;23.986;2023-02-08T06:28:48;94328.47;;;-8.70;93.08
2214;BME280;1113;42.018;23.986;2023-02-08T06:31:15;94327.25;;;-8.66;93.18
2214;BME280;1113;42.018;23.986;2023-02-08T06:33:41;94329.34;;;-8.53;90.78
2214;BME280;1113;42.018;23.986;2023-02-08T06:36:08;94326.66;;;-8.60;88.85
2214;BME280;1113;42.018;23.986;2023-02-08T06:38:35;94324.41;;;-8.71;92.36
2214;BME280;1113;42.018;23.986;2023-02-08T06:41:03;94321.84;;;-8.79;93.61
2214;BME280;1113;42.018;23.986;2023-02-08T06:43:30;94329.88;;;-8.93;94.83
2214;BME280;1113;42.018;23.986;2023-02-08T06:45:57;94326.97;;;-9.06;96.57
2214;BME280;1113;42.018;23.986;2023-02-08T06:48:24;94338.59;;;-8.97;98.30
2214;BME280;1113;42.018;23.986;2023-02-08T06:50:51;94337.84;;;-8.72;96.83
2214;BME280;1113;42.018;23.986;2023-02-08T06:53:18;94338.63;;;-8.71;96.11
2214;BME280;1113;42.018;23.986;2023-02-08T06:55:47;94336.84;;;-8.53;95.13
2214;BME280;1113;42.018;23.986;2023-02-08T06:58:16;94334.00;;;-8.58;95.02
2214;BME280;1113;42.018;23.986;2023-02-08T07:00:43;94328.41;;;-8.52;94.16
2214;BME280;1113;42.018;23.986;2023-02-08T07:03:11;94328.31;;;-8.42;93.55
2214;BME280;1113;42.018;23.986;2023-02-08T07:05:38;94326.88;;;-8.45;93.41
2214;BME280;1113;42.018;23.986;2023-02-08T07:08:06;94341.31;;;-8.39;94.29
2214;BME280;1113;42.018;23.986;2023-02-08T07:10:33;94339.47;;;-8.29;92.75
2214;BME280;1113;42.018;23.986;2023-02-08T07:13:01;94337.31;;;-8.15;90.39
2214;BME280;1113;42.018;23.986;2023-02-08T07:15:29;94333.72;;;-8.13;89.60
2214;BME280;1113;42.018;23.986;2023-02-08T07:17:56;94330.22;;;-7.86;90.51
2214;BME280;1113;42.018;23.986;2023-02-08T07:20:23;94336.13;;;-7.95;93.17
2214;BME280;1113;42.018;23.986;2023-02-08T07:22:49;94337.16;;;-7.80;93.03
2214;BME280;1113;42.018;23.986;2023-02-08T07:25:16;94333.91;;;-7.48;92.12
2214;BME280;1113;42.018;23.986;2023-02-08T07:27:43;94334.41;;;-7.28;92.56
2214;BME280;1113;42.018;23.986;2023-02-08T07:30:10;94337.25;;;-7.07;88.83
2214;BME280;1113;42.018;23.986;2023-02-08T07:32:39;94334.56;;;-7.21;87.50
2214;BME280;1113;42.018;23.986;2023-02-08T07:35:06;94344.63;;;-7.13;90.12
2214;BME280;1113;42.018;23.986;2023-02-08T07:37:33;94349.63;;;-6.97;89.88
2214;BME280;1113;42.018;23.986;2023-02-08T07:40:00;94337.53;;;-6.77;84.26
2214;BME280;1113;42.018;23.986;2023-02-08T07:42:28;94334.41;;;-6.87;84.10
2214;BME280;1113;42.018;23.986;2023-02-08T07:44:55;94335.34;;;-6.72;86.50
2214;BME280;1113;42.018;23.986;2023-02-08T07:47:21;94333.75;;;-6.57;85.31
2214;BME280;1113;42.018;23.986;2023-02-08T07:49:50;94333.44;;;-6.62;83.19
2214;BME280;1113;42.018;23.986;2023-02-08T07:52:16;94338.44;;;-6.54;85.51
2214;BME280;1113;42.018;23.986;2023-02-08T07:54:43;94345.00;;;-6.37;84.25
2214;BME280;1113;42.018;23.986;2023-02-08T07:57:10;94337.72;;;-6.15;84.09
2214;BME280;1113;42.018;23.986;2023-02-08T07:59:37;94337.13;;;-6.17;82.03
2214;BME280;1113;42.018;23.986;2023-02-08T08:02:03;94337.28;;;-6.19;85.75
2214;BME280;1113;42.018;23.986;2023-02-08T08:04:30;94336.16;;;-5.85;87.89
2214;BME280;1113;42.018;23.986;2023-02-08T08:06:58;94340.91;;;-5.59;86.01
2214;BME280;1113;42.018;23.986;2023-02-08T08:09:25;94334.31;;;-5.60;85.36
2214;BME280;1113;42.018;23.986;2023-02-08T08:11:52;94344.22;;;-5.59;85.38
2214;BME280;1113;42.018;23.986;2023-02-08T08:14:19;94347.53;;;-5.35;85.32
2214;BME280;1113;42.018;23.986;2023-02-08T08:16:45;94355.47;;;-5.24;83.99
2214;BME280;1113;42.018;23.986;2023-02-08T08:19:12;94352.13;;;-5.16;81.56
2214;BME280;1113;42.018;23.986;2023-02-08T08:21:39;94355.84;;;-5.35;80.60
2214;BME280;1113;42.018;23.986;2023-02-08T08:24:07;94346.34;;;-5.25;81.51
2214;BME280;1113;42.018;23.986;2023-02-08T08:26:34;94347.09;;;-5.16;81.23
2214;BME280;1113;42.018;23.986;2023-02-08T08:29:01;94343.38;;;-4.83;79.92
2214;BME280;1113;42.018;23.986;2023-02-08T08:31:28;94338.94;;;-4.58;79.79
2214;BME280;1113;42.018;23.986;2023-02-08T08:33:56;94341.72;;;-4.23;79.02
2214;BME280;1113;42.018;23.986;2023-02-08T08:36:22;94340.06;;;-3.87;76.83
2214;BME280;1113;42.018;23.986;2023-02-08T08:38:50;94343.28;;;-3.63;73.20
2214;BME280;1113;42.018;23.986;2023-02-08T08:41:18;94349.06;;;-3.48;72.71
2214;BME280;1113;42.018;23.986;2023-02-08T08:43:46;94344.97;;;-3.49;73.48
2214;BME280;1113;42.018;23.986;2023-02-08T08:46:13;94361.03;;;-3.14;72.52
2214;BME280;1113;42.018;23.986;2023-02-08T08:48:40;94362.06;;;-3.30;72.48
2214;BME280;1113;42.018;23.986;2023-02-08T08:51:07;94357.69;;;-3.57;75.12
2214;BME280;1113;42.018;23.986;2023-02-08T08:53:34;94369.59;;;-3.51;74.44
2214;BME280;1113;42.018;23.986;2023-02-08T08:56:04;94372.13;;;-3.51;75.91
2214;BME280;1113;42.018;23.986;2023-02-08T08:58:32;94368.22;;;-3.54;78.05
2214;BME280;1113;42.018;23.986;2023-02-08T09:00:59;94367.38;;;-3.61;78.85
2214;BME280;1113;42.018;23.986;2023-02-08T09:03:27;94365.75;;;-3.47;79.86
2214;BME280;1113;42.018;23.986;2023-02-08T09:05:54;94367.84;;;-3.14;77.86
2214;BME280;1113;42.018;23.986;2023-02-08T09:08:21;94371.59;;;-2.89;77.05
2214;BME280;1113;42.018;23.986;2023-02-08T09:10:48;94367.59;;;-2.77;76.31
2214;BME280;1113;42.018;23.986;2023-02-08T09:13:15;94364.19;;;-2.41;75.85
2214;BME280;1113;42.018;23.986;2023-02-08T09:15:46;94366.72;;;-2.13;74.02
2214;BME280;1113;42.018;23.986;2023-02-08T09:18:13;94376.22;;;-1.87;73.47
2214;BME280;1113;42.018;23.986;2023-02-08T09:20:40;94377.38;;;-1.90;71.91
2214;BME280;1113;42.018;23.986;2023-02-08T09:23:06;94378.59;;;-1.79;71.00
2214;BME280;1113;42.018;23.986;2023-02-08T09:25:35;94374.53;;;-1.74;69.68
2214;BME280;1113;42.018;23.986;2023-02-08T09:28:04;94382.09;;;-1.80;69.23
2214;BME280;1113;42.018;23.986;2023-02-08T09:30:31;94384.88;;;-1.69;68.29
2214;BME280;1113;42.018;23.986;2023-02-08T09:32:59;94377.06;;;-1.74;66.13
2214;BME280;1113;42.018;23.986;2023-02-08T09:35:26;94373.56;;;-1.66;63.49
2214;BME280;1113;42.018;23.986;2023-02-08T09:37:54;94380.19;;;-1.65;62.20
2214;BME280;1113;42.018;23.986;2023-02-08T09:40:24;94378.84;;;-1.68;61.11
2214;BME280;1113;42.018;23.986;2023-02-08T09:42:58;94372.22;;;-1.62;60.51
2214;BME280;1113;42.018;23.986;2023-02-08T09:45:32;94375.31;;;-1.73;61.43
2214;BME280;1113;42.018;23.986;2023-02-08T09:48:13;94375.34;;;-1.67;61.15
2214;BME280;1113;42.018;23.986;2023-02-08T09:50:44;94376.28;;;-1.74;62.05
2214;BME280;1113;42.018;23.986;2023-02-08T09:53:14;94375.88;;;-1.78;62.13
2214;BME280;1113;42.018;23.986;2023-02-08T09:55:45;94371.72;;;-1.92;62.82
2214;BME280;1113;42.018;23.986;2023-02-08T09:58:20;94376.88;;;-2.07;60.97
2214;BME280;1113;42.018;23.986;2023-02-08T10:00:49;94376.75;;;-1.99;59.94
2214;BME280;1113;42.018;23.986;2023-02-08T10:03:31;94371.75;;;-2.13;61.08
2214;BME280;1113;42.018;23.986;2023-02-08T10:05:59;94369.38;;;-1.94;60.27
2214;BME280;1113;42.018;23.986;2023-02-08T10:08:27;94366.78;;;-1.66;61.31
2214;BME280;1113;42.018;23.986;2023-02-08T10:11:00;94359.50;;;-1.34;59.26
2214;BME280;1113;42.018;23.986;2023-02-08T10:13:42;94354.03;;;-1.38;57.76
2214;BME280;1113;42.018;23.986;2023-02-08T10:16:22;94360.13;;;-1.12;58.66
2214;BME280;1113;42.018;23.986;2023-02-08T10:19:03;94350.66;;;-0.64;58.44
2214;BME280;1113;42.018;23.986;2023-02-08T10:21:43;94346.75;;;-0.40;56.26
2214;BME280;1113;42.018;23.986;2023-02-08T10:24:28;94335.38;;;-0.11;53.40
2214;BME280;1113;42.018;23.986;2023-02-08T10:27:07;94333.03;;;0.01;54.09
2214;BME280;1113;42.018;23.986;2023-02-08T10:30:14;94333.13;;;0.32;51.01
2214;BME280;1113;42.018;23.986;2023-02-08T10:32:54;94333.53;;;0.74;49.62
2214;BME280;1113;42.018;23.986;2023-02-08T10:35:31;94334.19;;;0.62;49.08
2214;BME280;1113;42.018;23.986;2023-02-08T10:38:11;94329.00;;;0.38;49.21
2214;BME280;1113;42.018;23.986;2023-02-08T10:40:44;94326.66;;;0.36;49.93
2214;BME280;1113;42.018;23.986;2023-02-08T10:43:20;94320.69;;;0.62;45.90
2214;BME280;1113;42.018;23.986;2023-02-08T10:45:52;94320.50;;;0.95;45.24
2214;BME280;1113;42.018;23.986;2023-02-08T10:48:31;94315.22;;;0.97;45.79
2214;BME280;1113;42.018;23.986;2023-02-08T10:51:02;94326.16;;;0.97;45.35
2214;BME280;1113;42.018;23.986;2023-02-08T10:53:29;94326.63;;;1.19;45.81
2214;BME280;1113;42.018;23.986;2023-02-08T10:55:56;94328.94;;;1.45;44.62
2214;BME280;1113;42.018;23.986;2023-02-08T10:58:24;94325.38;;;1.53;43.98
2214;BME280;1113;42.018;23.986;2023-02-08T11:00:52;94320.13;;;1.23;41.97
2214;BME280;1113;42.018;23.986;2023-02-08T11:03:23;94326.00;;;0.92;43.39
2214;BME280;1113;42.018;23.986;2023-02-08T11:05:51;94316.56;;;0.99;44.13
2214;BME280;1113;42.018;23.986;2023-02-08T11:08:20;94318.22;;;1.18;45.01
2214;BME280;1113;42.018;23.986;2023-02-08T11:10:58;94320.69;;;1.50;43.92
2214;BME280;1113;42.018;23.986;2023-02-08T11:13:31;94315.72;;;1.37;45.03
2214;BME280;1113;42.018;23.986;2023-02-08T11:15:59;94318.28;;;1.62;43.05
2214;BME280;1113;42.018;23.986;2023-02-08T11:18:29;94312.22;;;0.75;43.54
2214;BME280;1113;42.018;23.986;2023-02-08T11:20:58;94314.53;;;0.83;43.58
2214;BME280;1113;42.018;23.986;2023-02-08T11:23:29;94304.34;;;0.83;43.43
2214;BME280;1113;42.018;23.986;2023-02-08T11:26:13;94302.28;;;0.98;43.57
2214;BME280;1113;42.018;23.986;2023-02-08T11:28:41;94309.84;;;0.42;44.55
2214;BME280;1113;42.018;23.986;2023-02-08T11:31:15;94301.88;;;1.01;44.48
2214;BME280;1113;42.018;23.986;2023-02-08T11:33:58;94306.13;;;1.39;42.76
2214;BME280;1113;42.018;23.986;2023-02-08T11:36:26;94294.44;;;1.31;43.17
2214;BME280;1113;42.018;23.986;2023-02-08T11:38:55;94298.91;;;0.79;44.15
2214;BME280;1113;42.018;23.986;2023-02-08T11:41:22;94303.06;;;1.05;43.20
2214;BME280;1113;42.018;23.986;2023-02-08T11:43:57;94299.72;;;1.05;44.71
2214;BME280;1113;42.018;23.986;2023-02-08T11:46:45;94300.69;;;1.53;43.40
2214;BME280;1113;42.018;23.986;2023-02-08T11:49:19;94299.63;;;1.86;42.75
2214;BME280;1113;42.018;23.986;2023-02-08T11:51:47;94292.91;;;1.92;42.07
2214;BME280;1113;42.018;23.986;2023-02-08T11:54:34;94300.06;;;1.83;44.55
2214;BME280;1113;42.018;23.986;2023-02-08T11:57:09;94291.50;;;1.77;41.31
2214;BME280;1113;42.018;23.986;2023-02-08T11:59:36;94299.34;;;1.51;41.45
2214;BME280;1113;42.018;23.986;2023-02-08T12:02:21;94307.25;;;1.18;42.05
2214;BME280;1113;42.018;23.986;2023-02-08T12:04:51;94302.22;;;1.36;42.19
2214;BME280;1113;42.018;23.986;2023-02-08T12:07:24;94299.78;;;1.48;41.57
2214;BME280;1113;42.018;23.986;2023-02-08T12:10:10;94299.06;;;1.41;45.14
2214;BME280;1113;42.018;23.986;2023-02-08T12:12:49;94304.28;;;1.46;41.09
2214;BME280;1113;42.018;23.986;2023-02-08T12:15:24;94305.97;;;1.09;42.32
2214;BME280;1113;42.018;23.986;2023-02-08T12:18:06;94304.69;;;0.93;42.01
2214;BME280;1113;42.018;23.986;2023-02-08T12:20:39;94308.03;;;0.55;41.99
2214;BME280;1113;42.018;23.986;2023-02-08T12:23:40;94305.28;;;0.57;42.78
2214;BME280;1113;42.018;23.986;2023-02-08T12:26:17;94301.84;;;0.76;42.96
2214;BME280;1113;42.018;23.986;2023-02-08T12:29:06;94304.41;;;0.76;43.00
2214;BME280;1113;42.018;23.986;2023-02-08T12:31:44;94306.53;;;0.79;43.15
2214;BME280;1113;42.018;23.986;2023-02-08T12:34:18;94306.41;;;0.99;41.81
2214;BME280;1113;42.018;23.986;2023-02-08T12:36:57;94315.34;;;1.08;43.07
2214;BME280;1113;42.018;23.986;2023-02-08T12:39:56;94307.88;;;1.38;44.28
2214;BME280;1113;42.018;23.986;2023-02-08T12:42:54;94302.69;;;1.51;46.19
2214;BME280;1113;42.018;23.986;2023-02-08T12:45:42;94308.88;;;1.80;41.79
2214;BME280;1113;42.018;23.986;2023-02-08T12:48:27;94305.44;;;1.50;42.95
2214;BME280;1113;42.018;23.986;2023-02-08T12:51:23;94313.78;;;1.82;44.06
2214;BME280;1113;42.018;23.986;2023-02-08T12:54:10;94310.22;;;1.40;41.18
2214;BME280;1113;42.018;23.986;2023-02-08T12:56:42;94308.91;;;1.55;42.32
2214;BME280;1113;42.018;23.986;2023-02-08T12:59:21;94311.09;;;1.95;43.54
2214;BME280;1113;42.018;23.986;2023-02-08T13:01:51;94309.06;;;2.22;41.28
2214;BME280;1113;42.018;23.986;2023-02-08T13:04:24;94310.94;;;2.45;41.71
2214;BME280;1113;42.018;23.986;2023-02-08T13:06:57;94316.84;;;2.57;41.28
2214;BME280;1113;42.018;23.986;2023-02-08T13:09:37;94310.41;;;2.73;41.88
2214;BME280;1113;42.018;23.986;2023-02-08T13:15:06;94316.03;;;3.05;40.66
2214;BME280;1113;42.018;23.986;2023-02-08T13:17:42;94312.38;;;3.01;37.40
2214;BME280;1113;42.018;23.986;2023-02-08T13:20:22;94316.66;;;2.59;38.02
2214;BME280;1113;42.018;23.986;2023-02-08T13:22:56;94315.72;;;2.71;40.67
2214;BME280;1113;42.018;23.986;2023-02-08T13:25:29;94320.78;;;2.90;40.62
2214;BME280;1113;42.018;23.986;2023-02-08T13:28:02;94321.28;;;2.80;38.75
2214;BME280;1113;42.018;23.986;2023-02-08T13:30:32;94322.66;;;3.24;41.44
2214;BME280;1113;42.018;23.986;2023-02-08T13:33:06;94325.84;;;3.20;39.14
2214;BME280;1113;42.018;23.986;2023-02-08T13:35:39;94325.53;;;2.38;39.74
2214;BME280;1113;42.018;23.986;2023-02-08T13:38:17;94324.16;;;1.99;41.45
2214;BME280;1113;42.018;23.986;2023-02-08T13:40:46;94330.53;;;1.89;40.28